Time;durP1;ratioP1;P1;durP2;ratioP2;P2;SDS_P1;SDS_P2;PMS_P1;PMS_P2;Temp;Humidity;BMP_temperature;BMP_pressure;BME280_temperature;BME280_humidity;BME280_pressure;Samples;Min_cycle;Max_cycle;Signal;HPM_P1;HPM_P2
2021/01/26 00:01:04;;;;;;;41.70;21.30;;;0.80;99.90;;;;;;4979845;28;20056;-68
2021/01/26 00:03:31;;;;;;;39.97;19.57;;;0.80;99.90;;;;;;4987168;28;20054;-69
2021/01/26 00:05:58;;;;;;;40.83;19.70;;;1.00;99.90;;;;;;4981532;28;20057;-69
2021/01/26 00:08:25;;;;;;;35.40;18.30;;;1.00;99.90;;;;;;4965285;28;20047;-69
2021/01/26 00:10:52;;;;;;;39.27;18.50;;;1.10;99.90;;;;;;4969964;28;20057;-76
2021/01/26 00:13:20;;;;;;;39.20;17.10;;;1.10;99.90;;;;;;4978130;28;20145;-74
2021/01/26 00:15:47;;;;;;;35.80;17.47;;;1.20;99.90;;;;;;4981384;28;20733;-75
2021/01/26 00:18:14;;;;;;;35.93;16.97;;;1.20;99.90;;;;;;4980906;28;20674;-69
2021/01/26 00:20:40;;;;;;;36.27;17.80;;;1.20;99.90;;;;;;4978686;28;20051;-69
2021/01/26 00:23:07;;;;;;;38.13;17.80;;;1.10;99.90;;;;;;4980496;28;20050;-73
2021/01/26 00:25:36;;;;;;;37.50;20.27;;;1.10;99.90;;;;;;4972920;28;20054;-69
2021/01/26 00:28:05;;;;;;;33.73;16.93;;;1.10;99.90;;;;;;4978591;28;20516;-75
2021/01/26 00:30:34;;;;;;;30.57;16.67;;;1.00;99.90;;;;;;4966224;28;20051;-69
2021/01/26 00:33:05;;;;;;;32.10;16.83;;;1.10;99.90;;;;;;4982888;28;20129;-69
2021/01/26 00:35:32;;;;;;;31.83;15.10;;;1.20;99.90;;;;;;4978535;28;20058;-69
2021/01/26 00:38:01;;;;;;;32.10;16.43;;;1.20;99.90;;;;;;4981968;28;20050;-69
2021/01/26 00:40:28;;;;;;;31.73;15.87;;;1.10;99.90;;;;;;4984002;28;20046;-69
2021/01/26 00:42:55;;;;;;;34.97;17.83;;;1.10;99.90;;;;;;4983851;28;20050;-69
2021/01/26 00:45:24;;;;;;;29.00;15.80;;;1.00;99.90;;;;;;4978428;28;20062;-69
2021/01/26 00:47:51;;;;;;;25.03;13.20;;;1.10;99.90;;;;;;4985493;28;20097;-69
2021/01/26 00:50:20;;;;;;;26.53;13.40;;;1.10;99.90;;;;;;4979272;28;20055;-70
2021/01/26 00:52:47;;;;;;;24.93;12.13;;;1.10;99.90;;;;;;4976831;28;20116;-69
2021/01/26 00:55:15;;;;;;;25.90;12.73;;;1.00;99.90;;;;;;4980848;28;20190;-70
2021/01/26 00:57:41;;;;;;;20.50;9.67;;;0.90;99.90;;;;;;4975486;28;20065;-72
2021/01/26 01:00:12;;;;;;;20.43;10.30;;;0.80;99.90;;;;;;4970737;28;20050;-70
2021/01/26 01:02:39;;;;;;;23.03;9.80;;;0.70;99.90;;;;;;4983069;28;20046;-69
2021/01/26 01:05:08;;;;;;;18.77;8.90;;;0.80;99.90;;;;;;4986068;28;20081;-71
2021/01/26 01:07:35;;;;;;;19.47;9.33;;;0.60;99.90;;;;;;4984876;28;20050;-69
2021/01/26 01:10:01;;;;;;;21.97;8.87;;;0.60;99.90;;;;;;4983584;28;20120;-68
2021/01/26 01:12:28;;;;;;;18.63;9.13;;;0.60;99.90;;;;;;4985216;28;20054;-68
2021/01/26 01:14:55;;;;;;;21.80;9.97;;;0.60;99.90;;;;;;4988025;28;20046;-68
2021/01/26 01:17:21;;;;;;;18.60;8.43;;;0.50;99.90;;;;;;4990053;28;20046;-68
2021/01/26 01:19:48;;;;;;;18.97;8.90;;;0.50;99.90;;;;;;4991210;28;20054;-70
2021/01/26 01:22:15;;;;;;;20.47;9.70;;;0.40;99.90;;;;;;4989358;28;20065;-71
2021/01/26 01:24:41;;;;;;;18.77;9.50;;;0.30;99.90;;;;;;4990026;28;20050;-70
2021/01/26 01:27:08;;;;;;;19.63;8.80;;;0.30;99.90;;;;;;4988373;28;20485;-68
2021/01/26 01:29:34;;;;;;;16.97;8.93;;;0.30;99.90;;;;;;4987242;28;20640;-68
2021/01/26 01:32:01;;;;;;;17.77;8.37;;;0.30;99.90;;;;;;4987937;28;20104;-68
2021/01/26 01:34:27;;;;;;;16.73;8.77;;;0.30;99.90;;;;;;4987180;28;20058;-68
2021/01/26 01:36:55;;;;;;;18.43;9.27;;;0.20;99.90;;;;;;4987536;28;20046;-69
2021/01/26 01:39:21;;;;;;;19.07;9.40;;;0.20;99.90;;;;;;4988051;28;20057;-68
2021/01/26 01:41:48;;;;;;;18.77;9.80;;;0.20;99.90;;;;;;4987466;28;20050;-68
2021/01/26 01:44:14;;;;;;;22.30;10.23;;;0.30;99.90;;;;;;4984236;28;20043;-68
2021/01/26 01:46:46;;;;;;;20.10;9.77;;;0.20;99.90;;;;;;4984782;28;20046;-68
2021/01/26 01:49:20;;;;;;;22.23;11.57;;;0.20;99.90;;;;;;4987100;28;20100;-68
2021/01/26 01:51:47;;;;;;;23.43;10.80;;;0.10;99.90;;;;;;4987966;28;20069;-68
2021/01/26 01:54:18;;;;;;;22.97;11.93;;;0.10;99.90;;;;;;4986173;28;20049;-68
2021/01/26 01:56:51;;;;;;;25.30;12.20;;;0.10;99.90;;;;;;4987398;28;20042;-68
2021/01/26 01:59:25;;;;;;;25.40;11.53;;;0.10;99.90;;;;;;4987794;28;20050;-68
2021/01/26 02:01:52;;;;;;;23.93;11.70;;;0.10;99.90;;;;;;4987316;28;20056;-68
2021/01/26 02:04:23;;;;;;;25.53;12.03;;;0.10;99.90;;;;;;4986786;28;20046;-67
2021/01/26 02:06:54;;;;;;;25.90;10.77;;;0.10;99.90;;;;;;4987583;28;20046;-67
2021/01/26 02:09:26;;;;;;;24.50;12.37;;;0.10;99.90;;;;;;4982181;28;20046;-68
2021/01/26 02:11:53;;;;;;;24.47;11.77;;;0.10;99.90;;;;;;4987091;28;20875;-68
2021/01/26 02:14:20;;;;;;;24.30;12.17;;;0.10;99.90;;;;;;4982645;28;20050;-68
2021/01/26 02:17:01;;;;;;;25.90;13.37;;;0.10;99.90;;;;;;4986458;28;20046;-68
2021/01/26 02:20:12;;;;;;;26.27;12.90;;;0.10;99.90;;;;;;4986196;28;20415;-67
2021/01/26 02:23:17;;;;;;;26.67;12.77;;;0.10;99.90;;;;;;4978204;28;20046;-67
2021/01/26 02:26:30;;;;;;;24.73;11.87;;;0.10;99.90;;;;;;4983547;28;20054;-68
2021/01/26 02:28:59;;;;;;;28.83;12.03;;;0.20;99.90;;;;;;4943442;28;20050;-68
2021/01/26 02:32:10;;;;;;;24.80;12.00;;;0.00;99.90;;;;;;4996561;28;20046;-68
2021/01/26 02:35:18;;;;;;;23.93;12.20;;;-0.10;99.90;;;;;;4997498;28;20046;-68
2021/01/26 02:38:14;;;;;;;;;;;-0.10;99.90;;;;;;4993339;28;20149;-67
2021/01/26 02:40:48;;;;;;;23.60;11.40;;;-0.10;99.90;;;;;;4985073;28;20347;-69
2021/01/26 02:43:32;;;;;;;26.73;12.50;;;-0.10;99.90;;;;;;4978441;28;20516;-74
2021/01/26 02:46:08;;;;;;;23.97;11.63;;;-0.10;99.90;;;;;;4977932;28;20046;-74
2021/01/26 02:49:00;;;;;;;25.63;12.63;;;-0.20;99.90;;;;;;4966577;28;20105;-70
2021/01/26 02:51:38;;;;;;;25.20;12.03;;;-0.20;99.90;;;;;;4984997;28;20054;-73
2021/01/26 02:54:07;;;;;;;27.27;13.13;;;-0.20;99.90;;;;;;4983325;28;20042;-68
2021/01/26 02:56:42;;;;;;;26.00;13.10;;;-0.20;99.90;;;;;;4984013;28;20057;-68
2021/01/26 02:59:19;;;;;;;24.40;11.80;;;-0.10;99.90;;;;;;4984911;28;20352;-69
2021/01/26 03:01:51;;;;;;;25.37;10.87;;;-0.10;99.90;;;;;;4982700;28;20049;-68
2021/01/26 03:04:28;;;;;;;28.60;12.50;;;-0.10;99.90;;;;;;4986326;28;20501;-67
2021/01/26 03:06:58;;;;;;;28.83;12.77;;;-0.10;99.90;;;;;;4996038;28;20508;-68
2021/01/26 03:09:29;;;;;;;21.53;11.33;;;-0.10;99.90;;;;;;4985318;28;20046;-67
2021/01/26 03:12:02;;;;;;;27.93;12.83;;;-0.10;99.90;;;;;;4981645;28;20496;-67
2021/01/26 03:14:34;;;;;;;23.97;11.67;;;-0.10;99.90;;;;;;4975413;28;20047;-67
2021/01/26 03:17:09;;;;;;;25.20;12.60;;;-0.20;99.90;;;;;;4978878;28;20124;-68
2021/01/26 03:19:39;;;;;;;24.37;11.53;;;-0.10;99.90;;;;;;4979861;28;20046;-69
2021/01/26 03:22:08;;;;;;;26.23;11.70;;;-0.20;99.90;;;;;;4984175;28;20050;-70
2021/01/26 03:24:38;;;;;;;24.03;12.67;;;-0.30;99.90;;;;;;4977812;28;20253;-72
2021/01/26 03:27:11;;;;;;;27.30;11.90;;;-0.20;99.90;;;;;;4984083;28;20129;-72
2021/01/26 03:29:48;;;;;;;26.17;11.97;;;-0.10;99.90;;;;;;4983938;28;20046;-71
2021/01/26 03:32:20;;;;;;;33.77;14.20;;;0.00;99.90;;;;;;4983088;28;20054;-67
2021/01/26 03:34:47;;;;;;;25.03;12.33;;;-0.10;99.90;;;;;;4984183;28;20050;-72
2021/01/26 03:37:13;;;;;;;24.50;12.20;;;-0.10;99.90;;;;;;4983567;28;20398;-68
2021/01/26 03:39:40;;;;;;;26.17;12.83;;;0.10;99.90;;;;;;4983780;28;20076;-70
2021/01/26 03:42:08;;;;;;;25.93;11.47;;;0.10;99.90;;;;;;4983820;28;20055;-70
2021/01/26 03:44:35;;;;;;;23.37;10.97;;;0.10;99.90;;;;;;4976704;28;20750;-68
2021/01/26 03:47:28;;;;;;;20.73;9.60;;;0.10;99.90;;;;;;4981526;28;20050;-74
2021/01/26 03:50:32;;;;;;;25.60;12.23;;;0.00;99.90;;;;;;4971185;28;20046;-75
2021/01/26 03:53:39;;;;;;;25.03;12.00;;;-0.10;99.90;;;;;;4947145;28;20062;-68
2021/01/26 03:56:10;;;;;;;19.80;9.77;;;0.10;99.90;;;;;;4982312;28;20050;-71
2021/01/26 03:59:02;;;;;;;26.20;13.47;;;0.10;99.90;;;;;;4982976;28;20049;-68
2021/01/26 04:01:37;;;;;;;28.43;13.47;;;0.10;99.90;;;;;;4982562;28;20073;-68
2021/01/26 04:04:07;;;;;;;31.50;14.00;;;0.10;99.90;;;;;;4980515;28;20543;-73
2021/01/26 04:06:41;;;;;;;29.17;13.97;;;0.10;99.90;;;;;;4983180;28;20121;-74
2021/01/26 04:09:10;;;;;;;28.33;13.80;;;0.10;99.90;;;;;;4990568;28;20054;-69
2021/01/26 04:11:46;;;;;;;28.80;14.27;;;0.10;99.90;;;;;;4987671;28;20058;-73
2021/01/26 04:14:19;;;;;;;30.63;13.70;;;0.10;99.90;;;;;;4987998;28;20077;-75
2021/01/26 04:16:51;;;;;;;27.07;14.93;;;0.20;99.90;;;;;;4977202;28;20464;-71
2021/01/26 04:19:23;;;;;;;33.30;16.73;;;0.20;99.90;;;;;;4984572;28;20425;-68
2021/01/26 04:21:50;;;;;;;34.43;16.23;;;0.20;99.90;;;;;;4989447;28;20566;-73
2021/01/26 04:24:18;;;;;;;31.17;15.47;;;0.20;99.90;;;;;;4989317;28;20050;-68
2021/01/26 04:26:49;;;;;;;32.43;15.80;;;0.20;99.90;;;;;;4989979;28;20058;-70
2021/01/26 04:29:17;;;;;;;33.93;17.67;;;0.20;99.90;;;;;;4989864;28;20798;-68
2021/01/26 04:31:43;;;;;;;36.30;18.20;;;0.10;99.90;;;;;;4983716;28;20042;-68
2021/01/26 04:34:10;;;;;;;38.73;19.73;;;0.10;99.90;;;;;;4982778;28;20058;-68
2021/01/26 04:36:36;;;;;;;32.33;16.57;;;0.10;99.90;;;;;;4988937;28;20134;-68
2021/01/26 04:39:03;;;;;;;38.17;17.70;;;0.20;99.90;;;;;;4988921;28;20046;-68
2021/01/26 04:41:40;;;;;;;34.67;17.57;;;0.20;99.90;;;;;;4989119;28;20050;-71
2021/01/26 04:44:26;;;;;;;34.93;18.17;;;0.40;99.90;;;;;;4986179;28;20791;-68
2021/01/26 04:47:01;;;;;;;31.40;15.57;;;0.20;99.90;;;;;;4977549;28;20050;-70
2021/01/26 04:49:32;;;;;;;29.73;15.10;;;0.30;99.90;;;;;;4972396;28;20066;-74
2021/01/26 04:52:08;;;;;;;29.80;12.40;;;0.50;99.90;;;;;;4971529;28;20042;-70
2021/01/26 04:54:48;;;;;;;30.17;14.20;;;0.40;99.90;;;;;;4970913;28;20051;-74
2021/01/26 04:57:28;;;;;;;29.70;12.03;;;0.50;99.90;;;;;;4972517;28;20425;-73
2021/01/26 05:00:14;;;;;;;23.47;12.47;;;0.30;99.90;;;;;;4985787;28;20046;-71
2021/01/26 05:02:58;;;;;;;25.40;12.67;;;0.30;99.90;;;;;;4971332;28;20050;-75
2021/01/26 05:05:26;;;;;;;29.63;14.10;;;0.40;99.90;;;;;;4988185;28;20103;-68
2021/01/26 05:07:58;;;;;;;30.07;12.63;;;0.50;99.90;;;;;;4991414;28;20464;-68
2021/01/26 05:10:30;;;;;;;30.17;14.33;;;0.50;99.90;;;;;;4988619;28;20416;-68
2021/01/26 05:13:00;;;;;;;33.07;14.00;;;0.50;99.90;;;;;;4990110;28;20053;-68
2021/01/26 05:15:31;;;;;;;24.87;11.60;;;0.60;99.90;;;;;;4985247;28;20508;-68
2021/01/26 05:18:04;;;;;;;24.60;12.63;;;0.60;99.90;;;;;;4991047;28;20058;-68
2021/01/26 05:20:39;;;;;;;25.50;12.27;;;0.60;99.90;;;;;;4986680;28;20042;-68
2021/01/26 05:23:13;;;;;;;28.80;13.50;;;0.70;99.90;;;;;;4984850;28;20493;-68
2021/01/26 05:25:40;;;;;;;27.43;11.80;;;0.80;99.90;;;;;;4988056;28;20074;-68
2021/01/26 05:28:07;;;;;;;24.90;11.93;;;0.80;99.90;;;;;;4987486;28;20046;-68
2021/01/26 05:30:37;;;;;;;25.90;12.37;;;0.80;99.90;;;;;;4987194;28;20058;-68
2021/01/26 05:33:06;;;;;;;23.67;11.30;;;0.80;99.90;;;;;;4986448;28;20046;-68
2021/01/26 05:35:33;;;;;;;26.97;10.93;;;0.80;99.90;;;;;;4987450;28;20046;-68
2021/01/26 05:38:00;;;;;;;24.20;11.50;;;0.70;99.90;;;;;;4985588;28;20048;-68
2021/01/26 05:40:30;;;;;;;27.77;11.87;;;0.70;99.90;;;;;;4987340;28;20053;-70
2021/01/26 05:43:00;;;;;;;27.77;12.63;;;0.80;99.90;;;;;;4986943;28;20054;-70
2021/01/26 05:45:31;;;;;;;32.63;12.37;;;0.70;99.90;;;;;;4985200;28;20104;-70
2021/01/26 05:48:07;;;;;;;28.00;12.33;;;0.70;99.90;;;;;;4988057;28;20043;-69
2021/01/26 05:50:35;;;;;;;23.25;11.20;;;0.80;99.90;;;;;;4987701;28;20054;-75
2021/01/26 05:53:10;;;;;;;27.07;12.83;;;0.80;99.90;;;;;;4973372;28;20046;-68
2021/01/26 05:55:38;;;;;;;27.10;12.50;;;0.90;99.90;;;;;;4987485;28;20058;-68
2021/01/26 05:58:09;;;;;;;29.37;11.53;;;0.90;99.90;;;;;;4987745;28;20105;-68
2021/01/26 06:00:38;;;;;;;24.10;11.00;;;0.90;99.90;;;;;;4987630;28;20047;-68
2021/01/26 06:03:12;;;;;;;26.03;11.93;;;0.80;99.90;;;;;;4986561;28;20042;-68
2021/01/26 06:05:41;;;;;;;25.03;11.97;;;0.90;99.90;;;;;;4987215;28;20301;-68
2021/01/26 06:08:15;;;;;;;20.50;8.57;;;0.90;99.90;;;;;;4988194;28;20046;-68
2021/01/26 06:10:43;;;;;;;24.73;10.27;;;0.90;99.90;;;;;;4986695;28;20085;-69
2021/01/26 06:13:11;;;;;;;20.67;10.07;;;1.00;99.90;;;;;;4990887;28;20054;-69
2021/01/26 06:15:40;;;;;;;22.30;9.70;;;0.90;99.90;;;;;;4999490;28;20230;-69
2021/01/26 06:18:16;;;;;;;26.53;12.20;;;0.90;99.90;;;;;;5000439;28;20050;-69
2021/01/26 06:20:44;;;;;;;26.08;10.98;;;0.90;99.90;;;;;;4991802;28;20058;-69
2021/01/26 06:23:20;;;;;;;24.97;11.17;;;1.00;99.90;;;;;;4986411;28;20058;-69
2021/01/26 06:25:54;;;;;;;25.47;11.43;;;1.10;99.90;;;;;;4984852;28;20077;-69
2021/01/26 06:28:56;;;;;;;23.57;11.00;;;1.10;99.90;;;;;;4967490;28;20521;-70
2021/01/26 06:31:37;;;;;;;18.10;8.83;;;0.90;99.90;;;;;;4967538;28;20055;-70
2021/01/26 06:34:33;;;;;;;22.10;10.23;;;0.80;99.90;;;;;;4980979;28;20496;-71
2021/01/26 06:37:29;;;;;;;19.03;8.07;;;0.80;99.90;;;;;;4978623;28;20062;-69
2021/01/26 06:40:18;;;;;;;24.87;10.87;;;0.90;99.90;;;;;;4986250;28;20497;-72
2021/01/26 06:42:54;;;;;;;22.60;9.37;;;0.90;99.90;;;;;;4981913;28;20082;-76
2021/01/26 06:45:28;;;;;;;20.75;9.60;;;0.90;99.90;;;;;;4984347;28;20069;-71
2021/01/26 06:48:23;;;;;;;16.17;6.80;;;0.80;99.90;;;;;;4987217;28;20058;-75
2021/01/26 06:51:29;;;;;;;19.30;8.20;;;0.80;99.90;;;;;;4981404;28;20513;-69
2021/01/26 06:54:42;;;;;;;12.50;6.20;;;0.80;99.90;;;;;;4984277;28;20054;-69
2021/01/26 06:57:41;;;;;;;17.50;7.93;;;0.80;99.90;;;;;;4984975;28;20077;-69
2021/01/26 07:00:41;;;;;;;23.53;10.43;;;0.80;99.90;;;;;;4982462;28;20046;-69
2021/01/26 07:03:37;;;;;;;13.13;5.73;;;0.90;99.90;;;;;;4982370;28;20046;-69
2021/01/26 07:06:28;;;;;;;22.97;9.50;;;0.90;99.90;;;;;;4986270;28;20046;-69
2021/01/26 07:09:16;;;;;;;11.57;4.87;;;0.90;99.90;;;;;;4986109;28;20064;-69
2021/01/26 07:12:08;;;;;;;20.30;8.57;;;1.00;99.90;;;;;;4986802;28;20050;-69
2021/01/26 07:14:50;;;;;;;21.60;9.57;;;1.00;99.90;;;;;;4978302;28;20058;-69
2021/01/26 07:17:30;;;;;;;23.60;8.83;;;1.00;99.90;;;;;;4979558;28;20082;-69
2021/01/26 07:20:03;;;;;;;24.43;9.93;;;1.00;99.90;;;;;;4983701;28;20046;-70
2021/01/26 07:23:05;;;;;;;19.17;7.83;;;1.10;99.90;;;;;;4981487;28;20112;-70
2021/01/26 07:25:45;;;;;;;19.27;9.27;;;1.10;99.90;;;;;;4950977;28;20055;-69
2021/01/26 07:28:44;;;;;;;19.73;9.77;;;1.10;99.90;;;;;;4970617;28;20104;-69
2021/01/26 07:31:14;;;;;;;21.17;9.83;;;1.10;99.90;;;;;;4984226;28;20424;-69
2021/01/26 07:33:48;;;;;;;19.93;9.73;;;1.10;99.90;;;;;;4980383;28;20077;-69
2021/01/26 07:36:25;;;;;;;20.30;10.80;;;1.20;99.90;;;;;;4984570;28;20065;-69
2021/01/26 07:39:01;;;;;;;22.90;10.30;;;1.30;99.90;;;;;;4984574;28;20060;-69
2021/01/26 07:41:35;;;;;;;25.80;10.77;;;1.30;99.90;;;;;;4976312;28;20050;-68
2021/01/26 07:44:11;;;;;;;21.83;10.70;;;1.30;99.90;;;;;;4976939;28;20159;-69
2021/01/26 07:46:44;;;;;;;26.50;11.30;;;1.20;99.90;;;;;;4984199;28;20078;-71
2021/01/26 07:49:19;;;;;;;21.00;10.57;;;1.30;99.90;;;;;;4972343;28;20128;-71
2021/01/26 07:51:49;;;;;;;18.97;8.67;;;1.30;99.90;;;;;;4983319;28;20054;-73
2021/01/26 07:54:22;;;;;;;24.40;10.57;;;1.20;99.90;;;;;;4981686;28;20046;-71
2021/01/26 07:56:51;;;;;;;24.17;9.17;;;1.20;99.90;;;;;;4976664;28;20065;-71
2021/01/26 07:59:24;;;;;;;21.23;10.37;;;1.20;99.90;;;;;;4984155;28;20749;-75
2021/01/26 08:01:56;;;;;;;20.10;10.63;;;1.20;99.90;;;;;;4984503;28;20062;-71
2021/01/26 08:04:23;;;;;;;18.77;10.00;;;1.30;99.90;;;;;;4985407;28;20054;-72
2021/01/26 08:06:57;;;;;;;15.47;7.17;;;1.30;99.90;;;;;;4986018;28;20062;-74
2021/01/26 08:09:27;;;;;;;23.27;9.90;;;1.30;99.90;;;;;;4984919;28;20124;-72
2021/01/26 08:12:00;;;;;;;20.20;9.67;;;1.30;99.90;;;;;;4985105;28;20459;-71
2021/01/26 08:14:34;;;;;;;13.93;7.00;;;1.40;99.90;;;;;;4976722;28;20108;-72
2021/01/26 08:17:05;;;;;;;16.27;7.90;;;1.40;99.90;;;;;;4986349;28;20060;-71
2021/01/26 08:19:35;;;;;;;15.93;7.40;;;1.40;99.90;;;;;;4985978;28;20069;-71
2021/01/26 08:22:20;;;;;;;18.93;8.87;;;1.50;99.90;;;;;;4987371;28;20516;-72
2021/01/26 08:24:48;;;;;;;17.83;7.53;;;1.50;99.90;;;;;;4987205;28;20563;-71
2021/01/26 08:27:52;;;;;;;16.63;8.20;;;1.60;99.90;;;;;;4983189;28;20055;-71
2021/01/26 08:30:55;;;;;;;7.53;3.57;;;1.50;99.90;;;;;;4976478;28;20146;-71
2021/01/26 08:33:23;;;;;;;19.33;9.00;;;1.50;99.90;;;;;;4985997;28;20085;-71
2021/01/26 08:36:23;;;;;;;20.87;9.40;;;1.60;99.90;;;;;;4989324;28;20521;-72
2021/01/26 08:38:56;;;;;;;16.93;8.53;;;1.70;99.90;;;;;;4990356;28;20054;-72
2021/01/26 08:41:45;;;;;;;17.00;6.47;;;1.70;99.90;;;;;;4990519;28;20046;-71
2021/01/26 08:44:53;;;;;;;15.27;8.30;;;1.80;99.90;;;;;;4983860;28;20094;-71
2021/01/26 08:47:48;;;;;;;16.35;8.32;;;1.80;99.90;;;;;;4990160;28;20047;-74
2021/01/26 08:50:22;;;;;;;19.07;6.90;;;1.70;99.90;;;;;;4983319;28;20117;-73
2021/01/26 08:52:49;;;;;;;18.43;8.83;;;1.70;99.90;;;;;;4983940;28;20501;-74
2021/01/26 08:55:34;;;;;;;11.90;6.03;;;1.80;99.90;;;;;;4987606;28;20552;-75
2021/01/26 08:58:00;;;;;;;21.07;9.07;;;1.60;99.90;;;;;;4978912;28;20105;-69
2021/01/26 09:00:37;;;;;;;23.57;8.00;;;1.50;99.90;;;;;;4987841;28;20051;-71
2021/01/26 09:03:30;;;;;;;17.63;7.63;;;1.60;99.90;;;;;;4985192;28;20074;-71
2021/01/26 09:06:02;;;;;;;18.77;9.10;;;1.60;99.90;;;;;;4988250;28;20050;-71
2021/01/26 09:08:52;;;;;;;12.13;5.97;;;1.70;99.90;;;;;;4988590;28;20050;-73
2021/01/26 09:11:38;;;;;;;18.17;7.47;;;1.60;99.90;;;;;;4988876;28;20451;-72
2021/01/26 09:14:22;;;;;;;20.03;9.30;;;1.60;99.90;;;;;;4981305;28;20042;-72
2021/01/26 09:16:55;;;;;;;19.00;8.07;;;1.60;99.90;;;;;;4984516;28;20050;-72
2021/01/26 09:19:26;;;;;;;14.07;6.77;;;1.60;99.90;;;;;;4988995;28;20081;-73
2021/01/26 09:21:52;;;;;;;15.10;8.30;;;1.70;99.90;;;;;;4989321;28;20051;-72
2021/01/26 09:24:22;;;;;;;15.03;6.67;;;1.80;99.90;;;;;;4987967;28;20500;-71
2021/01/26 09:26:49;;;;;;;20.83;7.73;;;1.90;99.90;;;;;;4988665;28;20061;-72
2021/01/26 09:29:26;;;;;;;17.53;7.83;;;1.80;99.90;;;;;;4988516;28;20081;-70
2021/01/26 09:31:53;;;;;;;;;;;1.80;99.90;;;;;;4988513;28;20054;-70
2021/01/26 09:34:26;;;;;;;13.45;6.70;;;1.90;99.90;;;;;;4985119;28;19922;-70
2021/01/26 09:37:07;;;;;;;13.60;7.63;;;2.10;99.90;;;;;;4969588;28;20190;-71
2021/01/26 09:39:34;;;;;;;16.77;7.27;;;2.10;99.90;;;;;;4969577;28;20050;-71
2021/01/26 09:42:14;;;;;;;14.47;7.23;;;2.10;99.90;;;;;;4969059;28;20489;-70
2021/01/26 09:44:41;;;;;;;14.87;6.40;;;2.10;99.90;;;;;;4981832;28;20918;-70
2021/01/26 09:47:09;;;;;;;13.80;6.10;;;2.10;99.90;;;;;;4988564;28;20046;-70
2021/01/26 09:49:37;;;;;;;13.50;6.27;;;2.10;99.90;;;;;;4988620;28;20050;-70
2021/01/26 09:52:07;;;;;;;11.43;5.10;;;2.20;99.90;;;;;;4988270;28;20046;-68
2021/01/26 09:54:36;;;;;;;11.57;6.20;;;2.20;99.90;;;;;;4986410;28;20660;-68
2021/01/26 09:57:04;;;;;;;11.13;5.60;;;2.30;99.90;;;;;;4988072;28;20062;-67
2021/01/26 09:59:34;;;;;;;13.70;6.47;;;2.20;99.90;;;;;;4987487;28;20054;-68
2021/01/26 10:02:05;;;;;;;12.60;6.07;;;2.30;99.90;;;;;;4989015;28;20058;-73
2021/01/26 10:04:34;;;;;;;14.27;6.60;;;2.40;99.90;;;;;;4988683;28;20097;-69
2021/01/26 10:07:04;;;;;;;12.47;5.87;;;2.30;99.90;;;;;;4990288;28;20050;-72
2021/01/26 10:09:33;;;;;;;11.33;6.07;;;2.30;99.90;;;;;;4988765;28;20090;-70
2021/01/26 10:12:19;;;;;;;11.97;4.67;;;2.30;99.90;;;;;;4990312;28;20066;-70
2021/01/26 10:15:08;;;;;;;11.10;5.50;;;2.30;99.90;;;;;;4982509;28;20508;-70
2021/01/26 10:17:46;;;;;;;11.30;6.40;;;2.30;99.90;;;;;;4989488;28;20070;-70
2021/01/26 10:20:20;;;;;;;13.80;6.17;;;2.30;99.90;;;;;;4989893;28;20415;-70
2021/01/26 10:22:48;;;;;;;13.57;6.20;;;2.30;99.90;;;;;;4988166;28;20101;-70
2021/01/26 10:25:15;;;;;;;10.87;5.80;;;2.30;99.90;;;;;;4987418;28;20050;-70
2021/01/26 10:27:42;;;;;;;9.80;5.17;;;2.30;99.90;;;;;;4978575;28;20074;-70
2021/01/26 10:30:13;;;;;;;11.23;5.80;;;2.30;99.90;;;;;;4979392;28;20058;-70
2021/01/26 10:32:43;;;;;;;10.97;5.40;;;2.20;99.90;;;;;;4966831;28;20476;-70
2021/01/26 10:35:24;;;;;;;12.83;6.43;;;2.20;99.90;;;;;;4967660;28;20116;-70
2021/01/26 10:37:52;;;;;;;12.50;6.50;;;2.20;99.90;;;;;;4976859;28;20051;-70
2021/01/26 10:40:31;;;;;;;18.67;8.53;;;2.20;99.90;;;;;;4975255;28;20055;-70
2021/01/26 10:43:02;;;;;;;13.53;6.90;;;2.10;99.90;;;;;;4979503;28;20149;-71
2021/01/26 10:45:42;;;;;;;13.80;6.90;;;2.30;99.90;;;;;;4990971;28;20417;-70
2021/01/26 10:48:24;;;;;;;15.23;6.10;;;2.30;99.90;;;;;;4987024;28;20089;-70
2021/01/26 10:50:52;;;;;;;11.97;5.67;;;2.40;99.90;;;;;;4987652;28;20061;-70
2021/01/26 10:53:41;;;;;;;10.27;5.57;;;2.40;99.90;;;;;;4986159;28;20050;-70
2021/01/26 10:56:08;;;;;;;12.90;5.70;;;2.30;99.90;;;;;;4986228;28;20397;-70
2021/01/26 10:58:35;;;;;;;11.60;5.87;;;2.40;99.90;;;;;;4986978;28;20069;-70
2021/01/26 11:01:02;;;;;;;10.70;5.10;;;2.40;99.90;;;;;;4986215;28;20046;-70
2021/01/26 11:03:28;;;;;;;10.70;4.50;;;2.40;99.90;;;;;;4984602;28;20046;-70
2021/01/26 11:05:55;;;;;;;11.10;4.77;;;2.40;99.90;;;;;;4987198;28;20412;-73
2021/01/26 11:08:24;;;;;;;11.73;4.53;;;2.40;99.90;;;;;;4983965;28;20318;-73
2021/01/26 11:10:52;;;;;;;11.07;4.73;;;2.30;99.90;;;;;;4989145;28;20065;-70
2021/01/26 11:13:18;;;;;;;10.30;4.93;;;2.30;99.90;;;;;;4987258;28;20054;-70
2021/01/26 11:15:45;;;;;;;11.83;4.30;;;2.30;99.90;;;;;;4987006;28;20555;-71
2021/01/26 11:18:12;;;;;;;8.80;3.60;;;2.20;99.90;;;;;;4985752;28;20807;-71
2021/01/26 11:20:39;;;;;;;9.93;4.43;;;2.20;99.90;;;;;;4985909;28;20153;-70
2021/01/26 11:23:07;;;;;;;9.17;4.97;;;2.10;99.90;;;;;;4984486;28;20042;-70
2021/01/26 11:25:34;;;;;;;11.23;5.77;;;2.20;99.90;;;;;;4986292;28;20050;-70
2021/01/26 11:28:02;;;;;;;10.63;4.60;;;2.20;99.90;;;;;;4985534;28;20089;-70
2021/01/26 11:30:30;;;;;;;12.10;4.50;;;2.20;99.90;;;;;;4957951;28;20054;-70
2021/01/26 11:32:57;;;;;;;8.90;4.27;;;2.30;99.90;;;;;;4956496;28;20050;-70
2021/01/26 11:35:26;;;;;;;7.77;4.17;;;2.30;99.90;;;;;;4957764;28;20050;-70
2021/01/26 11:37:54;;;;;;;12.13;4.70;;;2.30;99.90;;;;;;4958072;28;20046;-70
2021/01/26 11:40:22;;;;;;;9.53;4.43;;;2.30;99.90;;;;;;4958559;28;20054;-70
2021/01/26 11:42:49;;;;;;;7.53;3.23;;;2.30;99.90;;;;;;4955086;28;20748;-70
2021/01/26 11:45:20;;;;;;;9.90;4.43;;;2.30;99.90;;;;;;4955904;28;20761;-70
2021/01/26 11:47:46;;;;;;;9.93;4.30;;;2.30;99.90;;;;;;4957288;28;20219;-70
2021/01/26 11:50:15;;;;;;;10.90;3.93;;;2.40;99.90;;;;;;4955058;28;20050;-70
2021/01/26 11:52:41;;;;;;;8.50;3.87;;;2.40;99.90;;;;;;4955424;28;20099;-70
2021/01/26 11:55:10;;;;;;;12.03;4.63;;;2.40;99.90;;;;;;4955934;28;20471;-71
2021/01/26 11:57:37;;;;;;;9.07;4.67;;;2.40;99.90;;;;;;4956660;28;20054;-70
2021/01/26 12:00:05;;;;;;;9.43;3.40;;;2.40;99.90;;;;;;4957309;28;20046;-70
2021/01/26 12:02:33;;;;;;;12.07;3.93;;;2.40;99.90;;;;;;4954739;28;20504;-70
2021/01/26 12:04:59;;;;;;;10.50;4.53;;;2.40;99.90;;;;;;4955990;28;20152;-70
2021/01/26 12:07:26;;;;;;;11.60;4.23;;;2.50;99.90;;;;;;4957513;28;20053;-71
2021/01/26 12:09:52;;;;;;;8.70;3.83;;;2.40;99.90;;;;;;4956061;28;20517;-71
2021/01/26 12:12:19;;;;;;;12.00;4.40;;;2.30;99.90;;;;;;4951854;28;20055;-71
2021/01/26 12:14:46;;;;;;;10.93;4.00;;;2.40;99.90;;;;;;4955550;28;20061;-71
2021/01/26 12:17:13;;;;;;;7.23;2.37;;;2.30;99.90;;;;;;4957723;28;20065;-71
2021/01/26 12:19:41;;;;;;;9.20;4.00;;;2.40;99.90;;;;;;4954894;28;20050;-71
2021/01/26 12:22:08;;;;;;;10.27;3.70;;;2.40;99.90;;;;;;4953220;28;20054;-71
2021/01/26 12:24:35;;;;;;;7.73;3.90;;;2.30;99.90;;;;;;4952755;28;20057;-71
2021/01/26 12:27:01;;;;;;;14.23;4.13;;;2.40;99.90;;;;;;4954107;28;20146;-71
2021/01/26 12:29:28;;;;;;;9.27;3.60;;;2.40;99.90;;;;;;4959913;28;20846;-71
2021/01/26 12:31:55;;;;;;;13.27;4.00;;;2.30;99.90;;;;;;4960652;28;20058;-71
2021/01/26 12:34:22;;;;;;;8.90;4.03;;;2.40;99.90;;;;;;4959897;28;20057;-71
2021/01/26 12:36:50;;;;;;;11.27;3.73;;;2.40;99.90;;;;;;4961609;28;20042;-71
2021/01/26 12:39:17;;;;;;;9.77;3.77;;;2.30;99.90;;;;;;4957147;28;20093;-70
2021/01/26 12:41:43;;;;;;;8.50;3.80;;;2.40;99.90;;;;;;4959819;28;20050;-71
2021/01/26 12:44:10;;;;;;;12.77;3.60;;;2.40;99.90;;;;;;4959178;28;20094;-71
2021/01/26 12:46:38;;;;;;;6.53;3.23;;;2.50;99.90;;;;;;4960734;28;20054;-71
2021/01/26 12:49:05;;;;;;;11.53;3.87;;;2.50;99.90;;;;;;4960938;28;20050;-71
2021/01/26 12:51:32;;;;;;;10.23;4.17;;;2.60;99.90;;;;;;4960905;28;20054;-71
2021/01/26 12:53:59;;;;;;;7.97;3.37;;;2.60;99.90;;;;;;4958621;28;20077;-71
2021/01/26 12:56:26;;;;;;;13.37;3.47;;;2.60;99.90;;;;;;4959894;28;20092;-71
2021/01/26 12:58:52;;;;;;;8.80;3.30;;;2.60;99.90;;;;;;4958462;28;20504;-71
2021/01/26 13:01:19;;;;;;;10.10;3.87;;;2.70;99.90;;;;;;4960859;28;20046;-71
2021/01/26 13:03:46;;;;;;;7.60;3.30;;;2.70;99.90;;;;;;4958669;28;20423;-71
2021/01/26 13:06:13;;;;;;;14.53;3.73;;;2.60;99.90;;;;;;4961285;28;20054;-71
2021/01/26 13:08:40;;;;;;;8.77;3.10;;;2.60;99.90;;;;;;4961164;28;20054;-71
2021/01/26 13:11:08;;;;;;;8.47;2.70;;;2.50;99.90;;;;;;4954381;28;20491;-71
2021/01/26 13:13:35;;;;;;;6.93;2.90;;;2.60;99.90;;;;;;4959836;28;20058;-71
2021/01/26 13:16:01;;;;;;;10.57;3.60;;;2.70;99.90;;;;;;4958982;28;20046;-71